Time;durP1;ratioP1;P1;durP2;ratioP2;P2;SDS_P1;SDS_P2;PMS_P1;PMS_P2;Temp;Humidity;BMP_temperature;BMP_pressure;BME280_temperature;BME280_humidity;BME280_pressure;Samples;Min_cycle;Max_cycle;Signal;HPM_P1;HPM_P2
2022/11/30 00:02:14;;;;;;;164.27;53.42;;;;;;;5.67;100.00;102085.47;5105456;28;20080;-70
2022/11/30 00:04:40;;;;;;;162.20;53.00;;;;;;;5.67;100.00;102090.72;5104471;28;20138;-70
2022/11/30 00:07:05;;;;;;;161.82;54.15;;;;;;;5.70;100.00;102091.72;5103966;28;20039;-69
2022/11/30 00:09:30;;;;;;;151.15;51.97;;;;;;;5.69;100.00;102089.03;5105952;28;20036;-69
2022/11/30 00:11:56;;;;;;;149.10;52.22;;;;;;;5.68;100.00;102096.03;5102923;28;20027;-69
2022/11/30 00:14:21;;;;;;;150.00;51.90;;;;;;;5.69;100.00;102092.56;5105988;28;20117;-69
2022/11/30 00:16:47;;;;;;;146.82;53.22;;;;;;;5.71;100.00;102095.28;5103480;28;20043;-69
2022/11/30 00:19:12;;;;;;;151.55;51.22;;;;;;;5.72;100.00;102091.78;5084962;28;20029;-69
2022/11/30 00:21:37;;;;;;;147.60;52.10;;;;;;;5.72;100.00;102092.72;5104622;28;20056;-70
2022/11/30 00:24:04;;;;;;;144.25;50.60;;;;;;;5.73;100.00;102093.59;5102046;28;20051;-70
2022/11/30 00:26:29;;;;;;;144.23;51.15;;;;;;;5.73;100.00;102093.59;5105624;28;20028;-69
2022/11/30 00:28:54;;;;;;;146.13;51.72;;;;;;;5.73;100.00;102091.88;5102384;28;20031;-69
2022/11/30 00:31:20;;;;;;;146.32;51.58;;;;;;;5.72;100.00;102097.97;5105615;28;20114;-69
2022/11/30 00:33:45;;;;;;;136.57;49.70;;;;;;;5.72;100.00;102103.22;5103227;28;20070;-69
2022/11/30 00:36:16;;;;;;;134.73;49.42;;;;;;;5.74;100.00;102095.41;5104201;28;20436;-69
2022/11/30 00:38:42;;;;;;;139.43;49.90;;;;;;;5.73;100.00;102104.97;5103790;28;20059;-69
2022/11/30 00:41:09;;;;;;;134.77;49.95;;;;;;;5.73;100.00;102098.84;5102353;28;20454;-69
2022/11/30 00:43:34;;;;;;;135.23;50.67;;;;;;;5.74;100.00;102100.66;5103236;28;20432;-69
2022/11/30 00:46:00;;;;;;;133.70;49.40;;;;;;;5.72;100.00;102100.59;5102558;28;20024;-69
2022/11/30 00:48:25;;;;;;;131.20;48.92;;;;;;;5.74;100.00;102105.91;5105577;28;20028;-70
2022/11/30 00:50:51;;;;;;;122.07;47.78;;;;;;;5.77;100.00;102108.66;5102147;28;20467;-73
2022/11/30 00:53:17;;;;;;;130.07;49.22;;;;;;;5.75;100.00;102103.34;5104763;28;20111;-68
2022/11/30 00:55:43;;;;;;;135.25;49.75;;;;;;;5.76;100.00;102110.38;5103063;28;20024;-69
2022/11/30 00:58:09;;;;;;;138.18;51.45;;;;;;;5.78;100.00;102105.19;5103578;28;20120;-69
2022/11/30 01:00:35;;;;;;;130.98;49.60;;;;;;;5.76;100.00;102105.13;5104475;28;20542;-70
2022/11/30 01:03:01;;;;;;;131.57;50.05;;;;;;;5.75;100.00;102107.66;5102126;28;20039;-69
2022/11/30 01:05:27;;;;;;;127.82;49.40;;;;;;;5.76;100.00;102109.47;5105051;28;20027;-69
2022/11/30 01:07:53;;;;;;;133.25;49.00;;;;;;;5.74;100.00;102105.91;5097504;28;20023;-70
2022/11/30 01:10:18;;;;;;;123.18;48.20;;;;;;;5.77;100.00;102111.28;5104495;28;20482;-69
2022/11/30 01:12:44;;;;;;;120.82;47.17;;;;;;;5.76;100.00;102109.47;5103219;28;20491;-70
2022/11/30 01:15:09;;;;;;;126.75;49.45;;;;;;;5.77;100.00;102111.28;5103141;28;20024;-70
2022/11/30 01:17:35;;;;;;;116.60;46.40;;;;;;;5.73;100.00;102107.59;5103938;28;20032;-70
2022/11/30 01:20:00;;;;;;;115.38;45.88;;;;;;;5.73;100.00;102109.34;5100440;28;20052;-70
2022/11/30 01:22:26;;;;;;;110.80;45.55;;;;;;;5.75;100.00;102110.28;5104994;28;20036;-69
2022/11/30 01:24:51;;;;;;;105.88;44.60;;;;;;;5.75;100.00;102105.97;5101670;28;20032;-70
2022/11/30 01:27:16;;;;;;;111.65;44.33;;;;;;;5.73;100.00;102110.22;5104144;28;20108;-72
2022/11/30 01:29:42;;;;;;;106.70;43.60;;;;;;;5.73;100.00;102109.34;5102855;28;20020;-71
2022/11/30 01:32:07;;;;;;;112.75;44.58;;;;;;;5.70;100.00;102111.84;5101218;28;20028;-69
2022/11/30 01:34:33;;;;;;;100.63;43.28;;;;;;;5.68;100.00;102108.22;5104392;28;20028;-71
2022/11/30 01:36:58;;;;;;;110.25;44.72;;;;;;;5.62;100.00;102105.34;5100007;28;20393;-71
2022/11/30 01:39:24;;;;;;;105.40;43.45;;;;;;;5.62;100.00;102110.59;5105011;28;20088;-70
2022/11/30 01:41:49;;;;;;;106.55;43.22;;;;;;;5.62;100.00;102113.22;5101787;28;20040;-70
2022/11/30 01:44:14;;;;;;;102.40;42.88;;;;;;;5.61;100.00;102109.69;5084131;28;20034;-70
2022/11/30 01:46:42;;;;;;;100.72;42.72;;;;;;;5.62;100.00;102107.97;5103230;28;20034;-70
2022/11/30 01:49:08;;;;;;;90.35;41.58;;;;;;;5.63;100.00;102105.41;5102513;28;20024;-70
2022/11/30 01:51:36;;;;;;;96.00;41.50;;;;;;;5.60;100.00;102107.91;5103857;28;20359;-69
2022/11/30 01:54:04;;;;;;;91.15;41.00;;;;;;;5.57;100.00;102119.16;5101632;28;20032;-73
2022/11/30 01:56:30;;;;;;;95.93;40.67;;;;;;;5.55;100.00;102125.19;5103049;28;20020;-72
2022/11/30 01:58:56;;;;;;;94.78;39.88;;;;;;;5.54;100.00;102123.38;5100963;28;20032;-69
2022/11/30 02:01:21;;;;;;;85.65;39.75;;;;;;;5.54;100.00;102132.13;5104489;28;20028;-70
2022/11/30 02:04:02;;;;;;;87.00;39.83;;;;;;;5.56;100.00;102138.34;5101862;28;20019;-70
2022/11/30 02:06:28;;;;;;;90.10;39.78;;;;;;;5.58;100.00;102123.56;5097661;28;20073;-71
2022/11/30 02:08:54;;;;;;;88.00;39.78;;;;;;;5.61;100.00;102140.25;5105000;28;20024;-72
2022/11/30 02:11:19;;;;;;;92.93;40.15;;;;;;;5.62;100.00;102128.94;5101738;28;20467;-72
2022/11/30 02:14:26;;;;;;;91.90;40.53;;;;;;;5.64;100.00;102130.81;5103229;28;20035;-72
2022/11/30 02:17:10;;;;;;;84.90;38.67;;;;;;;5.65;100.00;102127.38;5070144;28;20050;-74
2022/11/30 02:19:54;;;;;;;87.18;38.88;;;;;;;5.65;100.00;102123.84;5103556;28;20040;-71
2022/11/30 02:22:47;;;;;;;86.05;40.70;;;;;;;5.67;100.00;102124.81;5105490;28;20035;-74
2022/11/30 02:25:21;;;;;;;76.68;37.58;;;;;;;5.68;100.00;102127.50;5105378;28;20474;-72
2022/11/30 02:27:52;;;;;;;86.63;39.33;;;;;;;5.68;100.00;102127.50;5106222;28;20032;-75
2022/11/30 02:30:20;;;;;;;80.32;38.80;;;;;;;5.69;100.00;102126.66;5107364;28;20111;-72
2022/11/30 02:33:02;;;;;;;82.78;38.03;;;;;;;5.69;100.00;102134.53;5105804;28;20420;-75
2022/11/30 02:35:32;;;;;;;77.45;37.55;;;;;;;5.70;100.00;102136.34;5101090;28;20020;-72
2022/11/30 02:38:00;;;;;;;84.32;38.17;;;;;;;5.68;100.00;102129.22;5101031;28;20081;-76
2022/11/30 02:40:25;;;;;;;82.25;37.70;;;;;;;5.66;100.00;102133.50;5100510;28;20074;-76
2022/11/30 02:42:53;;;;;;;76.43;36.58;;;;;;;5.68;100.00;102137.09;5107581;28;20044;-72
2022/11/30 02:45:48;;;;;;;71.75;36.22;;;;;;;5.68;100.00;102131.84;5105304;28;20028;-72
2022/11/30 02:48:19;;;;;;;75.18;36.83;;;;;;;5.66;100.00;102141.38;5095366;28;20076;-75
2022/11/30 02:50:47;;;;;;;67.30;34.50;;;;;;;5.68;100.00;102137.09;5105859;28;20028;-73
2022/11/30 02:53:13;;;;;;;72.07;36.47;;;;;;;5.65;100.00;102143.13;5106296;28;20028;-75
2022/11/30 02:55:38;;;;;;;67.03;34.22;;;;;;;5.68;100.00;102147.59;5105251;28;20019;-71
2022/11/30 02:58:04;;;;;;;66.60;35.33;;;;;;;5.66;100.00;102141.38;5105258;28;20040;-75
2022/11/30 03:00:30;;;;;;;66.47;34.70;;;;;;;5.67;100.00;102145.81;5107675;28;20115;-73
2022/11/30 03:02:55;;;;;;;66.85;34.83;;;;;;;5.64;100.00;102148.31;5104132;28;20028;-72
2022/11/30 03:05:21;;;;;;;68.22;34.60;;;;;;;5.61;100.00;102146.44;5107271;28;20118;-72
2022/11/30 03:07:46;;;;;;;65.82;34.55;;;;;;;5.58;100.00;102141.03;5105101;28;20479;-72
2022/11/30 03:10:11;;;;;;;65.75;35.25;;;;;;;5.54;100.00;102145.25;5105633;28;20028;-72
2022/11/30 03:12:37;;;;;;;66.50;34.30;;;;;;;5.50;100.00;102140.69;5106557;28;20035;-72
2022/11/30 03:15:03;;;;;;;63.90;33.83;;;;;;;5.52;100.00;102146.00;5104236;28;20032;-72
2022/11/30 03:17:29;;;;;;;66.72;33.75;;;;;;;5.55;100.00;102146.16;5106383;28;20039;-72
2022/11/30 03:19:54;;;;;;;69.60;34.75;;;;;;;5.57;100.00;102147.13;5103556;27;20377;-73
2022/11/30 03:22:19;;;;;;;68.25;34.90;;;;;;;5.57;100.00;102149.72;5106429;28;20043;-71
2022/11/30 03:24:45;;;;;;;68.57;34.83;;;;;;;5.56;100.00;102140.97;5105233;28;20023;-73
2022/11/30 03:27:11;;;;;;;63.78;33.80;;;;;;;5.56;100.00;102142.69;5105233;28;20024;-72
2022/11/30 03:29:36;;;;;;;66.35;34.25;;;;;;;5.57;100.00;102144.50;5105600;28;20466;-72
2022/11/30 03:32:02;;;;;;;61.47;33.13;;;;;;;5.55;100.00;102143.53;5104335;28;20039;-69
2022/11/30 03:34:27;;;;;;;67.90;34.25;;;;;;;5.52;100.00;102146.91;5107021;28;20028;-70
2022/11/30 03:36:53;;;;;;;69.60;34.75;;;;;;;5.50;100.00;102145.91;5103610;28;20410;-69
2022/11/30 03:39:19;;;;;;;67.38;34.85;;;;;;;5.46;100.00;102143.09;5106278;28;20024;-70
2022/11/30 03:41:44;;;;;;;68.07;33.92;;;;;;;5.43;100.00;102142.97;5104806;28;20023;-69
2022/11/30 03:44:10;;;;;;;63.35;33.60;;;;;;;5.40;100.00;102144.63;5104728;28;20051;-69
2022/11/30 03:46:35;;;;;;;69.70;34.33;;;;;;;5.39;100.00;102144.56;5106249;28;20073;-69
2022/11/30 03:49:00;;;;;;;65.50;33.20;;;;;;;5.39;100.00;102147.19;5103363;28;20032;-70
2022/11/30 03:51:26;;;;;;;65.80;33.75;;;;;;;5.39;100.00;102145.44;5106927;28;20035;-69
2022/11/30 03:53:51;;;;;;;61.15;32.78;;;;;;;5.42;100.00;102149.94;5103856;28;20028;-69
2022/11/30 03:56:16;;;;;;;61.72;33.63;;;;;;;5.40;100.00;102147.25;5105354;28;20042;-69
2022/11/30 03:58:42;;;;;;;56.90;31.70;;;;;;;5.44;100.00;102150.91;5104842;28;20039;-70
2022/11/30 04:01:14;;;;;;;67.45;33.58;;;;;;;5.41;100.00;102156.00;5104011;28;20085;-70
2022/11/30 04:03:40;;;;;;;63.00;31.25;;;;;;;5.39;100.00;102155.03;5104963;27;20028;-69
2022/11/30 04:06:07;;;;;;;63.78;33.22;;;;;;;5.41;100.00;102153.38;5104035;28;20429;-69
2022/11/30 04:08:33;;;;;;;66.93;33.38;;;;;;;5.40;100.00;102146.31;5106125;28;20073;-69
2022/11/30 04:11:01;;;;;;;67.72;34.17;;;;;;;5.41;100.00;102150.75;5102734;28;20028;-69
2022/11/30 04:13:27;;;;;;;63.97;33.67;;;;;;;5.39;100.00;102149.81;5098891;28;20034;-69
2022/11/30 04:15:53;;;;;;;66.18;34.15;;;;;;;5.36;100.00;102154.91;5105908;28;20098;-69
2022/11/30 04:18:20;;;;;;;64.60;33.20;;;;;;;5.36;100.00;102150.53;5103474;28;20039;-69
2022/11/30 04:20:45;;;;;;;56.60;31.15;;;;;;;5.37;100.00;102146.19;5104603;28;20040;-70
2022/11/30 04:23:11;;;;;;;60.88;33.70;;;;;;;5.37;100.00;102147.09;5104729;28;20040;-75
2022/11/30 04:25:38;;;;;;;63.10;32.83;;;;;;;5.39;100.00;102150.69;5102236;28;20032;-75
2022/11/30 04:28:04;;;;;;;63.95;33.67;;;;;;;5.35;100.00;102150.47;5104324;28;20032;-75
2022/11/30 04:30:29;;;;;;;65.25;33.13;;;;;;;5.33;100.00;102150.41;5102441;28;20035;-75
2022/11/30 04:32:54;;;;;;;62.78;33.17;;;;;;;5.32;100.00;102145.09;5105696;28;20028;-76
2022/11/30 04:35:20;;;;;;;62.25;33.03;;;;;;;5.32;100.00;102155.59;5103134;28;20043;-75
2022/11/30 04:37:45;;;;;;;61.80;31.98;;;;;;;5.32;100.00;102150.34;5104262;28;20165;-75
2022/11/30 04:40:11;;;;;;;63.75;32.53;;;;;;;5.30;100.00;102155.50;5103350;28;20059;-75
2022/11/30 04:42:36;;;;;;;61.47;32.40;;;;;;;5.31;100.00;102148.53;5103203;28;20488;-75
2022/11/30 04:45:02;;;;;;;61.17;32.05;;;;;;;5.31;100.00;102152.03;5105418;28;20036;-75
2022/11/30 04:47:27;;;;;;;66.93;34.08;;;;;;;5.30;100.00;102162.47;5102233;28;20016;-75
2022/11/30 04:49:52;;;;;;;63.50;32.58;;;;;;;5.26;100.00;102158.81;5105230;28;20019;-75
2022/11/30 04:52:18;;;;;;;59.63;31.98;;;;;;;5.22;100.00;102163.00;5103279;28;20126;-74
2022/11/30 04:54:43;;;;;;;57.92;31.60;;;;;;;5.20;100.00;102154.19;5103698;28;20056;-73
2022/11/30 04:57:09;;;;;;;62.78;32.30;;;;;;;5.14;100.00;102159.13;5104384;28;20027;-74
2022/11/30 04:59:34;;;;;;;60.53;31.58;;;;;;;5.11;100.00;102164.25;5102213;28;20024;-74
2022/11/30 05:01:59;;;;;;;64.65;33.78;;;;;;;5.03;100.00;102162.97;5105536;28;20479;-72
2022/11/30 05:04:25;;;;;;;62.42;32.88;;;;;;;5.00;100.00;102158.47;5101843;28;20035;-74
2022/11/30 05:06:50;;;;;;;62.65;33.35;;;;;;;4.98;100.00;102159.19;5104446;28;20032;-69
2022/11/30 05:09:15;;;;;;;60.00;32.05;;;;;;;4.99;100.00;102159.28;5103318;28;20110;-69
2022/11/30 05:11:41;;;;;;;62.97;33.20;;;;;;;4.98;100.00;102159.19;5103278;28;20139;-70
2022/11/30 05:14:06;;;;;;;65.82;33.45;;;;;;;4.96;100.00;102159.13;5104302;28;20428;-69
2022/11/30 05:16:31;;;;;;;65.93;33.50;;;;;;;4.93;100.00;102168.59;5101882;28;20028;-70
2022/11/30 05:18:57;;;;;;;58.22;30.80;;;;;;;4.92;100.00;102172.91;5105360;28;20437;-70
2022/11/30 05:21:22;;;;;;;64.47;33.78;;;;;;;4.92;100.00;102169.41;5100498;28;20490;-69
2022/11/30 05:23:47;;;;;;;63.42;33.15;;;;;;;4.89;100.00;102170.13;5104025;28;20513;-70
2022/11/30 05:26:16;;;;;;;58.85;32.53;;;;;;;4.84;100.00;102166.41;5103149;27;20020;-70
2022/11/30 05:28:41;;;;;;;65.28;33.60;;;;;;;4.82;100.00;102168.97;5102889;28;20513;-69
2022/11/30 05:31:06;;;;;;;62.83;32.35;;;;;;;4.74;100.00;102170.31;5104203;28;20054;-70
2022/11/30 05:33:32;;;;;;;63.72;33.45;;;;;;;4.74;100.00;102177.28;5101554;28;20501;-69
2022/11/30 05:35:58;;;;;;;66.78;32.60;;;;;;;4.78;100.00;102173.97;5104781;28;20054;-69
2022/11/30 05:38:23;;;;;;;65.78;32.75;;;;;;;4.78;100.00;102173.97;5101650;28;20512;-69
2022/11/30 05:40:48;;;;;;;65.63;33.63;;;;;;;4.78;100.00;102173.97;5103654;28;20032;-70
2022/11/30 05:43:14;;;;;;;64.45;33.13;;;;;;;4.80;100.00;102182.81;5103176;28;20030;-74
2022/11/30 05:45:39;;;;;;;70.32;33.88;;;;;;;4.76;100.00;102186.09;5102378;28;20111;-75
2022/11/30 05:48:05;;;;;;;67.53;34.15;;;;;;;4.77;100.00;102188.78;5104135;28;20061;-76
2022/11/30 05:50:30;;;;;;;68.97;34.80;;;;;;;4.79;100.00;102183.63;5101289;28;20035;-75
2022/11/30 05:52:56;;;;;;;69.60;34.67;;;;;;;4.78;100.00;102190.59;5108897;28;20027;-76
2022/11/30 05:55:26;;;;;;;71.95;33.63;;;;;;;4.74;100.00;102195.59;5105878;28;20034;-75
2022/11/30 05:57:52;;;;;;;66.43;33.13;;;;;;;4.76;100.00;102184.41;5108273;28;20122;-76
2022/11/30 06:00:19;;;;;;;71.80;34.13;;;;;;;4.78;100.00;102200.19;5106346;28;20119;-75
2022/11/30 06:02:45;;;;;;;66.10;34.33;;;;;;;4.80;100.00;102195.91;5106621;28;20082;-76
2022/11/30 06:05:12;;;;;;;69.30;34.28;;;;;;;4.82;100.00;102196.88;5107583;28;20494;-76
2022/11/30 06:07:38;;;;;;;61.78;33.03;;;;;;;4.85;100.00;102202.28;5106019;28;20115;-76
2022/11/30 06:10:04;;;;;;;64.50;34.55;;;;;;;4.83;100.00;102203.91;5108229;28;20115;-76
2022/11/30 06:12:29;;;;;;;63.85;33.10;;;;;;;4.81;100.00;102202.94;5105211;28;20030;-76
2022/11/30 06:14:54;;;;;;;70.68;34.40;;;;;;;4.75;100.00;102195.69;5108508;28;20024;-77
2022/11/30 06:17:20;;;;;;;63.00;33.10;;;;;;;4.80;100.00;102204.66;5105776;28;20092;-77
2022/11/30 06:19:45;;;;;;;63.50;33.15;;;;;;;4.80;100.00;102199.41;5106937;28;20425;-76
2022/11/30 06:22:10;;;;;;;64.18;33.28;;;;;;;4.79;100.00;102202.88;5107221;28;20474;-75
2022/11/30 06:24:36;;;;;;;73.22;34.35;;;;;;;4.75;100.00;102200.00;5105679;28;20444;-76
2022/11/30 06:27:01;;;;;;;71.07;34.40;;;;;;;4.78;100.00;102205.44;5108529;28;20024;-76
2022/11/30 06:29:26;;;;;;;67.07;34.53;;;;;;;4.77;100.00;102199.25;5100651;28;20031;-75
2022/11/30 06:31:52;;;;;;;69.68;35.25;;;;;;;4.77;100.00;102209.75;5107580;28;20027;-74
2022/11/30 06:34:17;;;;;;;66.45;33.10;;;;;;;4.76;100.00;102202.72;5105062;28;20038;-75
2022/11/30 06:36:42;;;;;;;66.53;33.92;;;;;;;4.75;100.00;102206.16;5106266;28;20093;-75
2022/11/30 06:39:10;;;;;;;67.85;34.65;;;;;;;4.77;100.00;102203.63;5107083;28;20023;-75
2022/11/30 06:41:35;;;;;;;70.00;34.25;;;;;;;4.75;100.00;102211.41;5098943;28;20016;-73
2022/11/30 06:44:00;;;;;;;70.72;35.90;;;;;;;4.77;100.00;102206.25;5099190;28;20088;-72
2022/11/30 06:46:26;;;;;;;72.50;35.92;;;;;;;4.77;100.00;102207.13;5098438;28;20051;-73
2022/11/30 06:48:51;;;;;;;73.57;35.70;;;;;;;4.73;100.00;102199.94;5099718;28;20103;-73
2022/11/30 06:51:17;;;;;;;69.47;36.42;;;;;;;4.77;100.00;102206.25;5102284;28;20059;-68
2022/11/30 06:53:44;;;;;;;71.30;35.88;;;;;;;4.79;100.00;102210.75;5101218;28;20036;-69
2022/11/30 06:56:10;;;;;;;69.75;35.92;;;;;;;4.81;100.00;102216.06;5100166;28;20438;-71
2022/11/30 06:58:37;;;;;;;70.82;37.10;;;;;;;4.83;100.00;102211.78;5100581;28;20031;-71
2022/11/30 07:01:10;;;;;;;68.88;35.00;;;;;;;4.85;100.00;102223.25;5079821;28;20036;-71
2022/11/30 07:03:36;;;;;;;74.75;36.92;;;;;;;4.82;100.00;102221.38;5096568;28;20467;-67
2022/11/30 07:06:06;;;;;;;72.22;36.75;;;;;;;4.83;100.00;102220.53;5098691;28;20051;-67
2022/11/30 07:08:31;;;;;;;74.18;37.22;;;;;;;4.83;100.00;102219.63;5099976;28;20020;-69
2022/11/30 07:10:58;;;;;;;73.63;36.17;;;;;;;4.83;100.00;102232.75;5101273;28;20118;-70
2022/11/30 07:13:24;;;;;;;73.53;37.38;;;;;;;4.83;100.00;102231.00;5101016;28;20024;-70
2022/11/30 07:15:49;;;;;;;73.97;36.70;;;;;;;4.83;100.00;102224.88;5098786;28;20053;-71
2022/11/30 07:18:14;;;;;;;72.13;35.90;;;;;;;4.85;100.00;102225.88;5099286;28;20028;-70
2022/11/30 07:20:40;;;;;;;76.00;37.03;;;;;;;4.84;100.00;102230.19;5103382;28;20079;-68
2022/11/30 07:26:06;;;;;;;69.13;36.20;;;;;;;4.88;100.00;102245.25;5095044;28;20055;-70
2022/11/30 07:28:37;;;;;;;74.70;36.80;;;;;;;4.87;100.00;102247.78;5101048;28;20523;-72
2022/11/30 07:31:24;;;;;;;69.32;35.55;;;;;;;4.89;100.00;102247.06;5097464;28;20107;-69
2022/11/30 07:33:50;;;;;;;72.13;37.00;;;;;;;4.87;100.00;102253.94;5101480;28;20031;-69
2022/11/30 07:36:17;;;;;;;70.05;36.15;;;;;;;4.88;100.00;102255.72;5100641;28;20489;-67
2022/11/30 07:38:43;;;;;;;71.28;35.83;;;;;;;4.85;100.00;102250.34;5097231;28;20055;-70
2022/11/30 07:41:09;;;;;;;70.82;36.05;;;;;;;4.91;100.00;102261.94;5100570;28;20066;-68
2022/11/30 07:43:34;;;;;;;69.78;35.03;;;;;;;4.92;100.00;102267.25;5101894;28;20027;-72
2022/11/30 07:46:00;;;;;;;74.15;37.45;;;;;;;4.95;100.00;102261.28;5099538;28;20129;-70
2022/11/30 07:48:26;;;;;;;70.95;36.00;;;;;;;4.97;100.00;102265.78;5101568;28;20035;-67
2022/11/30 07:50:52;;;;;;;73.15;36.75;;;;;;;5.00;100.00;102268.53;5099171;28;20448;-74
2022/11/30 07:53:17;;;;;;;68.60;36.30;;;;;;;5.07;100.00;102273.28;5099976;28;20024;-67
2022/11/30 07:55:43;;;;;;;69.85;36.30;;;;;;;5.13;100.00;102272.69;5099562;28;20031;-70
2022/11/30 07:58:10;;;;;;;75.45;38.45;;;;;;;5.13;100.00;102272.69;5098445;28;20028;-71
2022/11/30 08:00:36;;;;;;;77.07;37.13;;;;;;;5.10;100.00;102272.53;5095592;28;20043;-69
2022/11/30 08:03:01;;;;;;;76.15;37.08;;;;;;;5.10;100.00;102266.38;5102513;28;20039;-68
2022/11/30 08:05:27;;;;;;;72.93;36.95;;;;;;;5.12;100.00;102267.38;5098808;28;20391;-70
2022/11/30 08:07:52;;;;;;;70.13;36.28;;;;;;;5.14;100.00;102271.88;5099463;28;20063;-66
2022/11/30 08:10:19;;;;;;;68.20;36.30;;;;;;;5.17;100.00;102276.34;5098599;28;20032;-69
2022/11/30 08:12:45;;;;;;;66.18;36.67;;;;;;;5.21;100.00;102276.59;5098254;28;20032;-70
2022/11/30 08:15:11;;;;;;;68.85;36.80;;;;;;;5.31;100.00;102282.28;5098940;28;20082;-70
2022/11/30 08:17:36;;;;;;;67.63;36.20;;;;;;;5.35;100.00;102281.59;5095696;28;20500;-70
2022/11/30 08:20:01;;;;;;;67.95;36.45;;;;;;;5.34;100.00;102287.66;5095787;28;20118;-70
2022/11/30 08:22:27;;;;;;;62.88;34.55;;;;;;;5.33;100.00;102289.41;5100091;28;20051;-70
2022/11/30 08:24:52;;;;;;;62.38;34.72;;;;;;;5.29;100.00;102284.81;5097917;28;20028;-70
2022/11/30 08:27:18;;;;;;;64.63;35.22;;;;;;;5.31;100.00;102288.41;5101538;28;20028;-74
2022/11/30 08:29:44;;;;;;;66.30;36.60;;;;;;;5.36;100.00;102293.91;5096594;28;20031;-74
2022/11/30 08:32:09;;;;;;;65.72;36.58;;;;;;;5.40;100.00;102288.88;5096981;28;20032;-75
2022/11/30 08:34:35;;;;;;;64.88;36.10;;;;;;;5.46;100.00;102290.91;5100677;28;20391;-74
2022/11/30 08:37:00;;;;;;;65.35;37.50;;;;;;;5.55;100.00;102303.56;5092710;28;20500;-67
2022/11/30 08:39:27;;;;;;;67.72;37.65;;;;;;;5.57;100.00;102302.78;5093197;28;20029;-71
2022/11/30 08:41:52;;;;;;;66.05;38.35;;;;;;;5.69;100.00;102304.19;5099382;28;20111;-72
2022/11/30 08:44:18;;;;;;;66.53;37.50;;;;;;;5.86;100.00;102302.38;5098800;28;20115;-70
2022/11/30 08:46:43;;;;;;;62.88;37.15;;;;;;;5.97;100.00;102302.88;5097352;28;20036;-73
2022/11/30 08:49:09;;;;;;;61.50;36.33;;;;;;;5.89;100.00;102313.91;5099559;28;20036;-73
2022/11/30 08:51:34;;;;;;;58.97;35.25;;;;;;;5.79;100.00;102309.06;5101818;28;20107;-74
2022/11/30 08:54:00;;;;;;;55.70;35.35;;;;;;;5.71;100.00;102313.06;5098838;28;20028;-72
2022/11/30 08:56:25;;;;;;;55.55;34.90;;;;;;;5.68;100.00;102315.50;5096546;28;20433;-71
2022/11/30 08:58:51;;;;;;;56.78;35.80;;;;;;;5.76;100.00;102306.28;5100452;28;20020;-70
2022/11/30 09:01:17;;;;;;;57.58;36.83;;;;;;;6.05;100.00;102307.69;5098087;28;20042;-70
2022/11/30 09:03:45;;;;;;;58.08;39.72;;;;;;;6.38;100.00;102307.44;5101794;28;20019;-71
2022/11/30 09:06:28;;;;;;;53.55;36.85;;;;;;;7.01;100.00;102316.25;5097542;28;20028;-73
2022/11/30 09:08:56;;;;;;;;;;;;;;;7.39;100.00;102315.22;5099495;28;20024;-73
2022/11/30 09:11:25;;;;;;;47.95;32.80;;;;;;;7.39;100.00;102322.22;5104305;28;19938;-72
2022/11/30 09:13:52;;;;;;;45.30;30.92;;;;;;;7.63;100.00;102322.28;5102457;28;20099;-73
2022/11/30 09:16:18;;;;;;;42.40;28.10;;;;;;;7.61;100.00;102326.63;5104526;28;20077;-74
2022/11/30 09:18:44;;;;;;;38.10;26.45;;;;;;;7.75;100.00;102329.81;5101516;28;20032;-74
2022/11/30 09:21:13;;;;;;;36.28;25.25;;;;;;;7.98;100.00;102334.22;5104949;28;20039;-75
2022/11/30 09:23:39;;;;;;;35.00;24.17;;;;;;;8.19;100.00;102333.25;5101753;28;20471;-75
2022/11/30 09:26:11;;;;;;;36.75;24.60;;;;;;;8.29;100.00;102329.25;5103629;28;20447;-73
2022/11/30 09:28:37;;;;;;;37.20;26.08;;;;;;;8.47;100.00;102335.19;5102261;28;20024;-72
2022/11/30 09:31:24;;;;;;;35.53;23.98;;;;;;;8.70;100.00;102338.66;5103781;28;20024;-73
2022/11/30 09:33:50;;;;;;;34.95;23.63;;;;;;;8.78;100.00;102330.13;5098840;28;20028;-71
2022/11/30 09:36:18;;;;;;;34.30;22.60;;;;;;;8.72;100.00;102338.72;5104791;28;20028;-71
2022/11/30 09:38:44;;;;;;;33.55;22.75;;;;;;;8.88;100.00;102334.88;5097562;28;20471;-71
2022/11/30 09:42:03;;;;;;;34.45;23.45;;;;;;;8.99;100.00;102338.81;5104600;28;20136;-72
2022/11/30 09:44:34;;;;;;;34.25;22.92;;;;;;;9.00;100.00;102337.06;5038912;28;20025;-72
2022/11/30 09:47:20;;;;;;;31.95;22.10;;;;;;;8.94;100.00;102337.78;5100434;28;20040;-72
2022/11/30 09:49:47;;;;;;;31.92;21.83;;;;;;;9.03;100.00;102332.81;5095673;28;20060;-67
2022/11/30 09:52:34;;;;;;;32.92;22.58;;;;;;;9.18;100.00;102331.53;5096963;28;20020;-66
2022/11/30 09:55:05;;;;;;;34.00;23.30;;;;;;;9.51;100.00;102336.13;5098290;28;20028;-66
2022/11/30 09:57:41;;;;;;;34.92;24.20;;;;;;;9.70;100.00;102332.34;5096310;28;20027;-67
2022/11/30 10:00:16;;;;;;;32.75;22.52;;;;;;;9.62;100.00;102334.72;5099111;28;20034;-67
2022/11/30 10:02:42;;;;;;;32.28;21.52;;;;;;;9.28;100.00;102333.63;5089985;28;20022;-67
2022/11/30 10:05:13;;;;;;;32.38;22.25;;;;;;;8.98;100.00;102337.00;5097663;28;20382;-68
2022/11/30 10:07:47;;;;;;;32.75;21.50;;;;;;;8.97;100.00;102335.22;5096670;28;20051;-67
2022/11/30 10:10:39;;;;;;;32.45;21.63;;;;;;;9.11;100.00;102324.25;5096324;28;20043;-69
2022/11/30 10:13:20;;;;;;;33.50;23.67;;;;;;;8.84;100.00;102327.72;5098774;28;20062;-67
2022/11/30 10:15:54;;;;;;;33.50;22.70;;;;;;;8.71;100.00;102324.66;5097875;28;20471;-69
2022/11/30 10:18:27;;;;;;;32.47;22.55;;;;;;;8.64;100.00;102327.03;5099751;28;20028;-67
2022/11/30 10:21:33;;;;;;;33.83;23.30;;;;;;;8.69;100.00;102315.81;5099580;28;20563;-67
2022/11/30 10:24:28;;;;;;;33.70;23.25;;;;;;;9.06;100.00;102330.25;5096308;28;20062;-67
2022/11/30 10:26:56;;;;;;;33.47;22.67;;;;;;;9.51;100.00;102318.56;5094422;28;20479;-72
2022/11/30 10:29:34;;;;;;;32.92;21.98;;;;;;;10.10;100.00;102323.00;5097672;28;20028;-77
2022/11/30 10:32:08;;;;;;;30.90;20.65;;;;;;;11.10;100.00;102317.84;5097796;28;20474;-71
2022/11/30 10:34:35;;;;;;;30.77;20.08;;;;;;;11.60;100.00;102319.94;5095193;28;20019;-74
2022/11/30 10:37:16;;;;;;;30.73;20.38;;;;;;;12.10;100.00;102311.41;5095743;28;20038;-69
2022/11/30 10:39:53;;;;;;;29.50;19.70;;;;;;;11.89;100.00;102317.06;5098816;28;20027;-70
2022/11/30 10:42:26;;;;;;;27.75;17.40;;;;;;;11.85;100.00;102317.84;5099265;28;20029;-69
2022/11/30 10:45:03;;;;;;;29.50;18.23;;;;;;;11.73;100.00;102304.34;5101327;28;20054;-70
2022/11/30 10:47:35;;;;;;;28.35;18.17;;;;;;;11.71;100.00;102311.34;5102836;28;20032;-69
2022/11/30 10:50:03;;;;;;;28.60;18.52;;;;;;;11.44;100.00;102313.38;5098927;28;20072;-75
2022/11/30 10:52:34;;;;;;;28.13;17.75;;;;;;;11.20;100.00;102307.47;5100358;28;20043;-75
2022/11/30 10:55:00;;;;;;;27.80;17.35;;;;;;;10.87;100.00;102304.03;5102832;28;20073;-74
2022/11/30 10:57:30;;;;;;;28.50;18.42;;;;;;;10.69;100.00;102299.16;5100741;28;20469;-75
2022/11/30 10:59:59;;;;;;;28.63;17.73;;;;;;;10.61;100.00;102298.03;5101056;28;20020;-75
2022/11/30 11:02:41;;;;;;;27.77;16.15;;;;;;;10.55;100.00;102295.22;5100065;28;20355;-75
2022/11/30 11:05:06;;;;;;;26.45;16.30;;;;;;;10.21;100.00;102303.06;5101649;28;20024;-75
2022/11/30 11:07:32;;;;;;;27.55;17.20;;;;;;;10.17;100.00;102292.38;5107760;28;20031;-75
2022/11/30 11:10:00;;;;;;;27.65;17.30;;;;;;;10.39;100.00;102305.38;5104071;28;20042;-74
2022/11/30 11:12:29;;;;;;;28.98;17.65;;;;;;;10.48;100.00;102299.44;5096771;28;20020;-75
2022/11/30 11:15:21;;;;;;;27.77;16.70;;;;;;;10.54;100.00;102293.44;5100749;28;20375;-75